createdAt,value
2023-01-15T00:00:02.555Z,8.58
2023-01-15T00:00:15.125Z,8.57
2023-01-15T00:00:26.900Z,8.57
2023-01-15T00:00:37.680Z,8.58
2023-01-15T00:00:48.457Z,8.57
2023-01-15T00:01:00.269Z,8.58
2023-01-15T00:01:12.014Z,8.57
2023-01-15T00:01:23.764Z,8.57
2023-01-15T00:01:36.105Z,8.55
2023-01-15T00:01:47.810Z,8.55
2023-01-15T00:01:59.506Z,8.55
2023-01-15T00:02:11.772Z,8.53
2023-01-15T00:02:22.624Z,8.54
2023-01-15T00:02:34.374Z,8.53
2023-01-15T00:02:45.229Z,8.53
2023-01-15T00:02:57.501Z,8.53
2023-01-15T00:03:10.233Z,8.51
2023-01-15T00:03:21.011Z,8.51
2023-01-15T00:03:31.803Z,8.51
2023-01-15T00:03:42.620Z,8.51
2023-01-15T00:03:54.358Z,8.51
2023-01-15T00:04:05.098Z,8.50
2023-01-15T00:04:15.886Z,8.50
2023-01-15T00:04:26.655Z,8.50
2023-01-15T00:04:38.373Z,8.50
2023-01-15T00:04:49.157Z,8.50
2023-01-15T00:05:01.422Z,8.48
2023-01-15T00:05:13.160Z,8.48
2023-01-15T00:05:24.897Z,8.48
2023-01-15T00:05:35.627Z,8.47
2023-01-15T00:05:47.326Z,8.47
2023-01-15T00:05:58.082Z,8.45
2023-01-15T00:06:10.524Z,8.47
2023-01-15T00:06:21.253Z,8.45
2023-01-15T00:06:32.984Z,8.44
2023-01-15T00:06:43.744Z,8.44
2023-01-15T00:06:54.489Z,8.44
2023-01-15T00:07:06.925Z,8.45
2023-01-15T00:07:17.746Z,8.44
2023-01-15T00:07:28.554Z,8.45
2023-01-15T00:07:39.275Z,8.44
2023-01-15T00:07:50.065Z,8.42
2023-01-15T00:08:01.787Z,8.44
2023-01-15T00:08:13.507Z,8.42
2023-01-15T00:08:26.725Z,8.42
2023-01-15T00:08:39.191Z,8.42
2023-01-15T00:08:50.166Z,8.42
2023-01-15T00:09:00.965Z,8.42
2023-01-15T00:09:11.714Z,8.42
2023-01-15T00:09:22.480Z,8.42
2023-01-15T00:09:33.253Z,8.42
2023-01-15T00:09:43.980Z,8.42
2023-01-15T00:09:55.676Z,8.39
2023-01-15T00:10:06.486Z,8.42
2023-01-15T00:10:18.206Z,8.39
2023-01-15T00:10:29.900Z,8.40
2023-01-15T00:10:40.626Z,8.39
2023-01-15T00:10:52.926Z,8.39
2023-01-15T00:11:05.413Z,8.37
2023-01-15T00:11:16.137Z,8.39
2023-01-15T00:11:26.885Z,8.36
2023-01-15T00:11:39.351Z,8.37
2023-01-15T00:11:50.145Z,8.37
2023-01-15T00:12:01.847Z,8.37
2023-01-15T00:12:13.559Z,8.39
2023-01-15T00:12:24.295Z,8.37
2023-01-15T00:12:37.007Z,8.37
2023-01-15T00:12:49.966Z,8.36
2023-01-15T00:13:02.928Z,8.36
2023-01-15T00:13:15.176Z,8.37
2023-01-15T00:13:27.392Z,8.36
2023-01-15T00:13:38.152Z,8.36
2023-01-15T00:13:50.656Z,8.35
2023-01-15T00:14:01.396Z,8.36
2023-01-15T00:14:12.136Z,8.36
2023-01-15T00:14:24.342Z,8.37
2023-01-15T00:14:36.348Z,8.35
2023-01-15T00:14:47.118Z,8.36
2023-01-15T00:14:57.869Z,8.36
2023-01-15T00:15:08.605Z,8.36
2023-01-15T00:15:19.419Z,8.35
2023-01-15T00:15:32.369Z,8.35
2023-01-15T00:15:44.921Z,8.36
2023-01-15T00:15:56.922Z,8.35
2023-01-15T00:16:08.721Z,8.35
2023-01-15T00:16:19.560Z,8.33
2023-01-15T00:16:31.258Z,8.35
2023-01-15T00:16:42.998Z,8.33
2023-01-15T00:16:53.752Z,8.33
2023-01-15T00:17:05.486Z,8.33
2023-01-15T00:17:16.225Z,8.33
2023-01-15T00:17:29.481Z,8.33
2023-01-15T00:17:40.231Z,8.33
2023-01-15T00:17:52.720Z,8.32
2023-01-15T00:18:05.168Z,8.32
2023-01-15T00:18:16.900Z,8.33
2023-01-15T00:18:27.750Z,8.32
2023-01-15T00:18:38.491Z,8.33
2023-01-15T00:18:50.933Z,8.32
2023-01-15T00:19:01.687Z,8.32
2023-01-15T00:19:12.469Z,8.30
2023-01-15T00:19:24.431Z,8.30
2023-01-15T00:19:35.221Z,8.30
2023-01-15T00:19:45.968Z,8.32
2023-01-15T00:19:56.760Z,8.30
2023-01-15T00:20:07.542Z,8.29
2023-01-15T00:20:19.232Z,8.29
2023-01-15T00:20:30.031Z,8.28
2023-01-15T00:20:40.799Z,8.28
2023-01-15T00:20:51.560Z,8.29
2023-01-15T00:21:03.278Z,8.29
2023-01-15T00:21:14.093Z,8.28
2023-01-15T00:21:25.913Z,8.28
2023-01-15T00:21:36.711Z,8.26
2023-01-15T00:21:47.455Z,8.26
2023-01-15T00:22:00.408Z,8.26
2023-01-15T00:22:11.173Z,8.26
2023-01-15T00:22:22.894Z,8.26
2023-01-15T00:22:33.657Z,8.25
2023-01-15T00:22:45.849Z,8.25
2023-01-15T00:22:58.077Z,8.22
2023-01-15T00:23:09.851Z,8.22
2023-01-15T00:23:21.544Z,8.25
2023-01-15T00:23:33.281Z,8.22
2023-01-15T00:23:44.051Z,8.25
2023-01-15T00:23:54.814Z,8.21
2023-01-15T00:24:05.572Z,8.21
2023-01-15T00:24:16.383Z,8.22
2023-01-15T00:24:27.122Z,8.22
2023-01-15T00:24:37.884Z,8.21
2023-01-15T00:24:48.689Z,8.21
2023-01-15T00:24:59.464Z,8.22
2023-01-15T00:25:11.906Z,8.21
2023-01-15T00:25:24.886Z,8.21
2023-01-15T00:25:35.656Z,8.20
2023-01-15T00:25:47.362Z,8.21
2023-01-15T00:26:00.579Z,8.21
2023-01-15T00:26:11.461Z,8.21
2023-01-15T00:26:23.261Z,8.20
2023-01-15T00:26:34.953Z,8.20
2023-01-15T00:26:45.749Z,8.18
2023-01-15T00:26:56.461Z,8.20
2023-01-15T00:27:08.201Z,8.18
2023-01-15T00:27:19.901Z,8.18
2023-01-15T00:27:30.663Z,8.18
2023-01-15T00:27:41.408Z,8.17
2023-01-15T00:27:52.204Z,8.17
2023-01-15T00:28:05.420Z,8.17
2023-01-15T00:28:17.128Z,8.15
2023-01-15T00:28:27.893Z,8.17
2023-01-15T00:28:38.626Z,8.15
2023-01-15T00:28:50.323Z,8.15
2023-01-15T00:29:01.065Z,8.14
2023-01-15T00:29:11.822Z,8.14
2023-01-15T00:29:22.571Z,8.14
2023-01-15T00:29:33.321Z,8.14
2023-01-15T00:29:45.060Z,8.12
2023-01-15T00:29:57.299Z,8.12
2023-01-15T00:30:08.090Z,8.11
2023-01-15T00:30:20.561Z,8.12
2023-01-15T00:30:31.312Z,8.11
2023-01-15T00:30:42.056Z,8.10
2023-01-15T00:30:52.841Z,8.12
2023-01-15T00:31:04.553Z,8.11
2023-01-15T00:31:17.795Z,8.11
2023-01-15T00:31:29.525Z,8.11
2023-01-15T00:31:41.272Z,8.11
2023-01-15T00:31:52.038Z,8.10
2023-01-15T00:32:04.336Z,8.10
2023-01-15T00:32:16.053Z,8.10
2023-01-15T00:32:29.214Z,8.08
2023-01-15T00:32:40.003Z,8.08
2023-01-15T00:32:53.205Z,8.08
2023-01-15T00:33:03.977Z,8.07
2023-01-15T00:33:14.729Z,8.07
2023-01-15T00:33:26.462Z,8.07
2023-01-15T00:33:38.141Z,8.07
2023-01-15T00:33:50.617Z,8.07
2023-01-15T00:34:03.062Z,8.07
2023-01-15T00:34:15.276Z,8.04
2023-01-15T00:34:26.084Z,8.07
2023-01-15T00:34:36.815Z,8.04
2023-01-15T00:34:47.573Z,8.04
2023-01-15T00:34:59.335Z,8.03
2023-01-15T00:35:11.104Z,8.04
2023-01-15T00:35:23.333Z,8.07
2023-01-15T00:35:34.102Z,8.04
2023-01-15T00:35:46.342Z,8.04
2023-01-15T00:35:58.045Z,8.03
2023-01-15T00:36:10.526Z,8.03
2023-01-15T00:36:22.763Z,8.03
2023-01-15T00:36:35.185Z,8.03
2023-01-15T00:36:45.976Z,8.03
2023-01-15T00:36:58.421Z,8.03
2023-01-15T00:37:09.199Z,8.02
2023-01-15T00:37:19.998Z,8.02
2023-01-15T00:37:33.224Z,8.02
2023-01-15T00:37:44.952Z,8.02
2023-01-15T00:37:55.714Z,8.02
2023-01-15T00:38:08.667Z,8.02
2023-01-15T00:38:20.388Z,8.00
2023-01-15T00:38:31.174Z,8.00
2023-01-15T00:38:42.902Z,8.00
2023-01-15T00:38:53.664Z,8.00
2023-01-15T00:39:04.483Z,8.00
2023-01-15T00:39:15.271Z,8.00
2023-01-15T00:39:26.974Z,8.00
2023-01-15T00:39:39.455Z,8.00
2023-01-15T00:39:50.247Z,7.99
2023-01-15T00:40:02.455Z,7.99
2023-01-15T00:40:13.253Z,7.99
2023-01-15T00:40:25.056Z,7.97
2023-01-15T00:40:35.977Z,7.99
2023-01-15T00:40:47.746Z,7.97
2023-01-15T00:40:58.486Z,7.97
2023-01-15T00:41:09.224Z,7.97
2023-01-15T00:41:20.983Z,7.97
2023-01-15T00:41:32.662Z,7.97
2023-01-15T00:41:43.417Z,7.97
2023-01-15T00:41:54.161Z,7.97
2023-01-15T00:42:04.899Z,7.97
2023-01-15T00:42:15.674Z,7.97
2023-01-15T00:42:26.479Z,7.97
2023-01-15T00:42:40.128Z,7.97
2023-01-15T00:42:54.339Z,7.97
2023-01-15T00:43:07.261Z,7.96
2023-01-15T00:43:18.983Z,7.94
2023-01-15T00:43:29.768Z,7.96
2023-01-15T00:43:42.225Z,7.94
2023-01-15T00:43:53.978Z,7.94
2023-01-15T00:44:04.846Z,7.93
2023-01-15T00:44:15.624Z,7.94
2023-01-15T00:44:27.350Z,7.94
2023-01-15T00:44:38.134Z,7.96
2023-01-15T00:44:48.911Z,7.94
2023-01-15T00:45:00.664Z,7.96
2023-01-15T00:45:11.587Z,7.94
2023-01-15T00:45:22.491Z,7.94
2023-01-15T00:45:34.573Z,7.93
2023-01-15T00:45:45.355Z,7.94
2023-01-15T00:45:57.809Z,7.93
2023-01-15T00:46:08.636Z,7.92
2023-01-15T00:46:21.118Z,7.93
2023-01-15T00:46:32.872Z,7.92
2023-01-15T00:46:45.331Z,7.90
2023-01-15T00:46:56.091Z,7.90
2023-01-15T00:47:06.884Z,7.90
2023-01-15T00:47:18.610Z,7.89
2023-01-15T00:47:29.388Z,7.90
2023-01-15T00:47:40.145Z,7.90
2023-01-15T00:47:50.996Z,7.92
2023-01-15T00:48:03.410Z,7.90
2023-01-15T00:48:14.187Z,7.90
2023-01-15T00:48:24.971Z,7.92
2023-01-15T00:48:36.701Z,7.90
2023-01-15T00:48:50.126Z,7.90
2023-01-15T00:49:00.908Z,7.90
2023-01-15T00:49:11.674Z,7.89
2023-01-15T00:49:22.396Z,7.89
2023-01-15T00:49:34.868Z,7.87
2023-01-15T00:49:46.583Z,7.89
2023-01-15T00:49:58.808Z,7.87
2023-01-15T00:50:11.103Z,7.85
2023-01-15T00:50:23.549Z,7.85
2023-01-15T00:50:34.338Z,7.85
2023-01-15T00:50:46.043Z,7.85
2023-01-15T00:50:59.259Z,7.85
2023-01-15T00:51:11.078Z,7.84
2023-01-15T00:51:22.807Z,7.85
2023-01-15T00:51:33.541Z,7.82
2023-01-15T00:51:45.252Z,7.82
2023-01-15T00:51:57.676Z,7.82
2023-01-15T00:52:08.419Z,7.82
2023-01-15T00:52:21.526Z,7.82
2023-01-15T00:52:32.314Z,7.81
2023-01-15T00:52:43.052Z,7.79
2023-01-15T00:52:54.841Z,7.81
2023-01-15T00:53:07.320Z,7.81
2023-01-15T00:53:20.554Z,7.79
2023-01-15T00:53:31.308Z,7.79
2023-01-15T00:53:44.047Z,7.78
2023-01-15T00:53:54.836Z,7.77
2023-01-15T00:54:05.569Z,7.77
2023-01-15T00:54:16.300Z,7.77
2023-01-15T00:54:27.088Z,7.75
2023-01-15T00:54:38.757Z,7.77
2023-01-15T00:54:50.578Z,7.75
2023-01-15T00:55:03.541Z,7.75
2023-01-15T00:55:15.267Z,7.74
2023-01-15T00:55:26.024Z,7.74
2023-01-15T00:55:37.738Z,7.72
2023-01-15T00:55:48.489Z,7.71
2023-01-15T00:55:59.251Z,7.71
2023-01-15T00:56:10.019Z,7.71
2023-01-15T00:56:20.758Z,7.69
2023-01-15T00:56:31.500Z,7.71
2023-01-15T00:56:42.265Z,7.67
2023-01-15T00:56:54.563Z,7.69
2023-01-15T00:57:07.206Z,7.66
2023-01-15T00:57:17.920Z,7.67
2023-01-15T00:57:28.672Z,7.63
2023-01-15T00:57:39.430Z,7.63
2023-01-15T00:57:52.639Z,7.63
2023-01-15T00:58:04.874Z,7.63
2023-01-15T00:58:16.640Z,7.60
2023-01-15T00:58:27.439Z,7.62
2023-01-15T00:58:39.192Z,7.60
2023-01-15T00:58:50.969Z,7.60
2023-01-15T00:59:01.723Z,7.58
2023-01-15T00:59:12.479Z,7.58
2023-01-15T00:59:23.213Z,7.58
2023-01-15T00:59:35.453Z,7.58
2023-01-15T00:59:47.929Z,7.55
2023-01-15T00:59:58.708Z,7.55
2023-01-15T01:00:09.603Z,7.53
2023-01-15T01:00:20.442Z,7.53
2023-01-15T01:00:31.307Z,7.53
2023-01-15T01:00:43.068Z,7.53
2023-01-15T01:00:55.540Z,7.52
2023-01-15T01:01:06.432Z,7.50
2023-01-15T01:01:17.362Z,7.50
2023-01-15T01:01:29.243Z,7.49
2023-01-15T01:01:41.770Z,7.49
2023-01-15T01:01:53.741Z,7.47
2023-01-15T01:02:06.157Z,7.47
2023-01-15T01:02:18.517Z,7.47
2023-01-15T01:02:29.373Z,7.47
2023-01-15T01:02:41.183Z,7.45
2023-01-15T01:02:52.057Z,7.44
2023-01-15T01:03:06.101Z,7.41
2023-01-15T01:03:17.834Z,7.40
2023-01-15T01:03:29.584Z,7.38
2023-01-15T01:03:41.377Z,7.35
2023-01-15T01:03:52.160Z,7.32
2023-01-15T01:04:06.444Z,7.26
2023-01-15T01:04:18.195Z,7.24
2023-01-15T01:04:30.710Z,7.22
2023-01-15T01:04:42.465Z,7.19
2023-01-15T01:04:54.960Z,7.17
2023-01-15T01:05:05.701Z,7.16
2023-01-15T01:05:17.565Z,7.13
2023-01-15T01:05:28.342Z,7.12
2023-01-15T01:05:40.851Z,7.09
2023-01-15T01:05:51.651Z,7.07
2023-01-15T01:06:03.345Z,7.04
2023-01-15T01:06:14.157Z,7.01
2023-01-15T01:06:26.633Z,6.98
2023-01-15T01:06:38.838Z,6.97
2023-01-15T01:06:49.685Z,6.91
2023-01-15T01:07:01.429Z,6.90
2023-01-15T01:07:13.682Z,6.86
2023-01-15T01:07:24.431Z,6.83
2023-01-15T01:07:36.152Z,6.81
2023-01-15T01:07:46.932Z,6.80
2023-01-15T01:07:58.763Z,6.79
2023-01-15T01:08:12.312Z,6.77
2023-01-15T01:08:23.054Z,6.73
2023-01-15T01:08:35.793Z,6.72
2023-01-15T01:08:48.244Z,6.68
2023-01-15T01:09:00.050Z,6.65
2023-01-15T01:09:12.538Z,6.63
2023-01-15T01:09:23.292Z,6.61
2023-01-15T01:09:36.005Z,6.58
2023-01-15T01:09:48.473Z,6.54
2023-01-15T01:09:59.204Z,6.51
2023-01-15T01:10:09.988Z,6.48
2023-01-15T01:10:23.219Z,6.47
2023-01-15T01:10:34.986Z,6.44
2023-01-15T01:10:47.444Z,6.43
2023-01-15T01:10:58.222Z,6.41
2023-01-15T01:11:08.956Z,6.40
2023-01-15T01:11:21.432Z,6.36
2023-01-15T01:11:33.845Z,6.35
2023-01-15T01:11:44.625Z,6.33
2023-01-15T01:11:55.352Z,6.32
2023-01-15T01:12:07.085Z,6.30
2023-01-15T01:12:18.839Z,6.29
2023-01-15T01:12:30.633Z,6.26
2023-01-15T01:12:43.107Z,6.25
2023-01-15T01:12:54.807Z,6.21
2023-01-15T01:13:05.575Z,6.19
2023-01-15T01:13:17.336Z,6.19
2023-01-15T01:13:28.091Z,6.16
2023-01-15T01:13:38.841Z,6.14
2023-01-15T01:13:50.643Z,6.11
2023-01-15T01:14:02.684Z,6.10
2023-01-15T01:14:13.588Z,6.10
2023-01-15T01:14:27.305Z,6.10
2023-01-15T01:14:39.069Z,6.09
2023-01-15T01:14:50.796Z,6.06
2023-01-15T01:15:01.574Z,6.06
2023-01-15T01:15:13.331Z,6.06
2023-01-15T01:15:24.123Z,6.04
2023-01-15T01:15:36.603Z,6.03
2023-01-15T01:15:48.315Z,6.01
2023-01-15T01:15:59.151Z,6.01
2023-01-15T01:16:09.985Z,6.00
2023-01-15T01:16:20.836Z,5.98
2023-01-15T01:16:31.689Z,5.96
2023-01-15T01:16:42.485Z,5.96
2023-01-15T01:16:53.297Z,5.95
2023-01-15T01:17:05.023Z,5.93
2023-01-15T01:17:15.774Z,5.93
2023-01-15T01:17:26.516Z,5.92
2023-01-15T01:17:39.736Z,5.92
2023-01-15T01:17:50.564Z,5.91
2023-01-15T01:18:01.305Z,5.91
2023-01-15T01:18:12.076Z,5.91
2023-01-15T01:18:23.832Z,5.89
2023-01-15T01:18:35.565Z,5.89
2023-01-15T01:18:47.997Z,5.88
2023-01-15T01:18:58.769Z,5.88
2023-01-15T01:19:09.538Z,5.86
2023-01-15T01:19:20.367Z,5.86
2023-01-15T01:19:31.136Z,5.86
2023-01-15T01:19:43.353Z,5.86
2023-01-15T01:19:55.830Z,5.85
2023-01-15T01:20:06.593Z,5.83
2023-01-15T01:20:17.345Z,5.83
2023-01-15T01:20:28.142Z,5.82
2023-01-15T01:20:38.877Z,5.81
2023-01-15T01:20:51.354Z,5.82
2023-01-15T01:21:03.836Z,5.81
2023-01-15T01:21:14.595Z,5.81
2023-01-15T01:21:25.359Z,5.81
2023-01-15T01:21:36.095Z,5.81
2023-01-15T01:21:47.823Z,5.78
2023-01-15T01:21:58.558Z,5.77
2023-01-15T01:22:11.778Z,5.78
2023-01-15T01:22:22.584Z,5.78
2023-01-15T01:22:33.363Z,5.77
2023-01-15T01:22:44.130Z,5.75
2023-01-15T01:22:56.595Z,5.77
2023-01-15T01:23:09.075Z,5.75
2023-01-15T01:23:20.811Z,5.75
2023-01-15T01:23:33.269Z,5.75
2023-01-15T01:23:44.067Z,5.74
2023-01-15T01:23:54.801Z,5.75
2023-01-15T01:24:05.545Z,5.74
2023-01-15T01:24:17.252Z,5.73
2023-01-15T01:24:28.005Z,5.73
2023-01-15T01:24:38.800Z,5.73
2023-01-15T01:24:51.289Z,5.71
2023-01-15T01:25:03.524Z,5.71
2023-01-15T01:25:15.988Z,5.70
2023-01-15T01:25:29.239Z,5.70
2023-01-15T01:25:41.718Z,5.70
2023-01-15T01:25:52.499Z,5.70
2023-01-15T01:26:03.338Z,5.70
2023-01-15T01:26:15.132Z,5.67
2023-01-15T01:26:26.872Z,5.68
2023-01-15T01:26:37.612Z,5.67
2023-01-15T01:26:49.380Z,5.68
2023-01-15T01:27:02.088Z,5.68
2023-01-15T01:27:15.029Z,5.67
2023-01-15T01:27:25.818Z,5.67
2023-01-15T01:27:37.525Z,5.67
2023-01-15T01:27:48.273Z,5.67
2023-01-15T01:28:00.520Z,5.67
2023-01-15T01:28:12.229Z,5.64
2023-01-15T01:28:23.958Z,5.66
2023-01-15T01:28:37.176Z,5.64
2023-01-15T01:28:48.886Z,5.63
2023-01-15T01:29:00.590Z,5.64
2023-01-15T01:29:11.372Z,5.63
2023-01-15T01:29:23.145Z,5.60
2023-01-15T01:29:34.859Z,5.63
2023-01-15T01:29:45.603Z,5.60
2023-01-15T01:29:56.428Z,5.60
2023-01-15T01:30:07.188Z,5.63
2023-01-15T01:30:18.904Z,5.63
2023-01-15T01:30:30.635Z,5.60
2023-01-15T01:30:43.063Z,5.60
2023-01-15T01:30:53.820Z,5.59
2023-01-15T01:31:06.819Z,5.60
2023-01-15T01:31:17.626Z,5.59
2023-01-15T01:31:28.354Z,5.59
2023-01-15T01:31:40.193Z,5.59
2023-01-15T01:31:50.951Z,5.57
2023-01-15T01:32:01.746Z,5.57
2023-01-15T01:32:14.979Z,5.57
2023-01-15T01:32:25.780Z,5.57
2023-01-15T01:32:36.522Z,5.56
2023-01-15T01:32:47.346Z,5.56
2023-01-15T01:32:59.151Z,5.56
2023-01-15T01:33:10.895Z,5.55
2023-01-15T01:33:24.129Z,5.56
2023-01-15T01:33:34.870Z,5.55
2023-01-15T01:33:45.623Z,5.55
2023-01-15T01:33:57.353Z,5.55
2023-01-15T01:34:09.093Z,5.53
2023-01-15T01:34:19.878Z,5.55
2023-01-15T01:34:30.637Z,5.53
2023-01-15T01:34:42.384Z,5.53
2023-01-15T01:34:53.110Z,5.55
2023-01-15T01:35:04.880Z,5.55
2023-01-15T01:35:15.620Z,5.53
2023-01-15T01:35:26.432Z,5.53
2023-01-15T01:35:37.224Z,5.52
2023-01-15T01:35:48.952Z,5.53
2023-01-15T01:35:59.709Z,5.53
2023-01-15T01:36:10.449Z,5.52
2023-01-15T01:36:22.672Z,5.52
2023-01-15T01:36:35.120Z,5.52
2023-01-15T01:36:46.977Z,5.52
2023-01-15T01:36:57.712Z,5.52
2023-01-15T01:37:08.494Z,5.53
2023-01-15T01:37:20.227Z,5.52
2023-01-15T01:37:32.440Z,5.50
2023-01-15T01:37:44.201Z,5.52
2023-01-15T01:37:54.973Z,5.50
2023-01-15T01:38:05.734Z,5.49
2023-01-15T01:38:17.471Z,5.50
2023-01-15T01:38:29.239Z,5.50
2023-01-15T01:38:40.042Z,5.49
2023-01-15T01:38:52.503Z,5.50
2023-01-15T01:39:03.272Z,5.49
2023-01-15T01:39:14.025Z,5.49
2023-01-15T01:39:24.799Z,5.49
2023-01-15T01:39:35.627Z,5.49
2023-01-15T01:39:46.411Z,5.49
2023-01-15T01:39:57.165Z,5.48
2023-01-15T01:40:08.003Z,5.48
2023-01-15T01:40:18.747Z,5.48
2023-01-15T01:40:29.497Z,5.48
2023-01-15T01:40:40.241Z,5.48
2023-01-15T01:40:51.037Z,5.48
2023-01-15T01:41:02.786Z,5.46
2023-01-15T01:41:14.506Z,5.46
2023-01-15T01:41:25.252Z,5.46
2023-01-15T01:41:36.054Z,5.46
2023-01-15T01:41:46.823Z,5.46
2023-01-15T01:41:59.285Z,5.46
2023-01-15T01:42:10.080Z,5.45
2023-01-15T01:42:20.891Z,5.45
2023-01-15T01:42:32.626Z,5.46
2023-01-15T01:42:43.414Z,5.45
2023-01-15T01:42:55.161Z,5.43
2023-01-15T01:43:06.911Z,5.43
2023-01-15T01:43:17.661Z,5.41
2023-01-15T01:43:28.398Z,5.41
2023-01-15T01:43:40.181Z,5.40
2023-01-15T01:43:50.933Z,5.41
2023-01-15T01:44:04.166Z,5.40
2023-01-15T01:44:17.891Z,5.38
2023-01-15T01:44:29.611Z,5.38
2023-01-15T01:44:42.073Z,5.38
2023-01-15T01:44:52.873Z,5.37
2023-01-15T01:45:04.870Z,5.34
2023-01-15T01:45:17.306Z,5.34
2023-01-15T01:45:28.185Z,5.32
2023-01-15T01:45:39.039Z,5.32
2023-01-15T01:45:51.263Z,5.32
2023-01-15T01:46:03.815Z,5.31
2023-01-15T01:46:16.313Z,5.31
2023-01-15T01:46:28.066Z,5.28
2023-01-15T01:46:40.554Z,5.28
2023-01-15T01:46:52.312Z,5.28
2023-01-15T01:47:04.018Z,5.27
2023-01-15T01:47:16.501Z,5.27
2023-01-15T01:47:29.236Z,5.25
2023-01-15T01:47:42.192Z,5.25
2023-01-15T01:47:55.948Z,5.25
2023-01-15T01:48:06.756Z,5.25
2023-01-15T01:48:18.506Z,5.23
2023-01-15T01:48:29.275Z,5.23
2023-01-15T01:48:40.024Z,5.25
2023-01-15T01:48:51.784Z,5.22
2023-01-15T01:49:04.015Z,5.22
2023-01-15T01:49:14.765Z,5.22
2023-01-15T01:49:25.574Z,5.20
2023-01-15T01:49:36.326Z,5.20
2023-01-15T01:49:47.124Z,5.19
2023-01-15T01:49:58.833Z,5.20
2023-01-15T01:50:09.605Z,5.19
2023-01-15T01:50:20.338Z,5.19
2023-01-15T01:50:32.073Z,5.17
2023-01-15T01:50:42.845Z,5.16
2023-01-15T01:50:55.343Z,5.17
2023-01-15T01:51:07.074Z,5.14
2023-01-15T01:51:17.831Z,5.16
2023-01-15T01:51:30.296Z,5.14
2023-01-15T01:51:41.060Z,5.13
2023-01-15T01:51:51.804Z,5.13
2023-01-15T01:52:03.502Z,5.13
2023-01-15T01:52:15.213Z,5.13
2023-01-15T01:52:27.640Z,5.12
2023-01-15T01:52:38.391Z,5.10
2023-01-15T01:52:49.207Z,5.10
2023-01-15T01:53:00.914Z,5.10
2023-01-15T01:53:14.168Z,5.09
2023-01-15T01:53:26.643Z,5.10
2023-01-15T01:53:38.362Z,5.07
2023-01-15T01:53:49.116Z,5.09
2023-01-15T01:54:01.564Z,5.09
2023-01-15T01:54:12.342Z,5.07
2023-01-15T01:54:23.074Z,5.07
2023-01-15T01:54:35.506Z,5.05
2023-01-15T01:54:46.338Z,5.05
2023-01-15T01:54:59.036Z,5.04
2023-01-15T01:55:09.770Z,5.04
2023-01-15T01:55:20.544Z,5.04
2023-01-15T01:55:31.313Z,5.05
2023-01-15T01:55:43.019Z,5.04
2023-01-15T01:55:53.779Z,5.04
2023-01-15T01:56:04.544Z,5.02
2023-01-15T01:56:16.255Z,5.02
2023-01-15T01:56:27.034Z,5.04
2023-01-15T01:56:37.809Z,5.04
2023-01-15T01:56:48.598Z,5.02
2023-01-15T01:57:00.560Z,5.02
2023-01-15T01:57:13.808Z,5.02
2023-01-15T01:57:24.789Z,5.01
2023-01-15T01:57:37.239Z,5.02
2023-01-15T01:57:48.006Z,5.01
2023-01-15T01:57:58.837Z,5.01
2023-01-15T01:58:09.635Z,5.01
2023-01-15T01:58:20.436Z,5.01
2023-01-15T01:58:31.287Z,4.99
2023-01-15T01:58:42.095Z,4.99
2023-01-15T01:58:52.835Z,4.99
2023-01-15T01:59:03.587Z,4.99
2023-01-15T01:59:14.355Z,4.99
2023-01-15T01:59:26.042Z,4.99
2023-01-15T01:59:36.841Z,4.99
2023-01-15T01:59:48.595Z,4.96
2023-01-15T02:00:00.356Z,4.98
2023-01-15T02:00:13.961Z,4.98
2023-01-15T02:00:26.455Z,4.96
2023-01-15T02:00:37.298Z,4.98
2023-01-15T02:00:48.162Z,4.98
2023-01-15T02:01:00.033Z,4.96
2023-01-15T02:01:10.969Z,4.95
2023-01-15T02:01:21.852Z,4.95
2023-01-15T02:01:35.114Z,4.95
2023-01-15T02:01:45.996Z,4.94
2023-01-15T02:01:57.890Z,4.92
2023-01-15T02:02:08.818Z,4.94
2023-01-15T02:02:21.388Z,4.92
2023-01-15T02:02:33.690Z,4.92
2023-01-15T02:02:44.516Z,4.92
2023-01-15T02:02:57.631Z,4.91
2023-01-15T02:03:08.412Z,4.91
2023-01-15T02:03:19.146Z,4.89
2023-01-15T02:03:30.931Z,4.91
2023-01-15T02:03:41.696Z,4.91
2023-01-15T02:03:52.446Z,4.89
2023-01-15T02:04:03.220Z,4.88
2023-01-15T02:04:14.871Z,4.89
2023-01-15T02:04:25.628Z,4.88
2023-01-15T02:04:37.382Z,4.88
2023-01-15T02:04:49.127Z,4.86
2023-01-15T02:05:00.818Z,4.86
2023-01-15T02:05:11.621Z,4.88
2023-01-15T02:05:22.378Z,4.88
2023-01-15T02:05:33.137Z,4.86
2023-01-15T02:05:45.347Z,4.83
2023-01-15T02:05:57.576Z,4.83
2023-01-15T02:06:09.298Z,4.83
2023-01-15T02:06:21.747Z,4.83
2023-01-15T02:06:32.525Z,4.83
2023-01-15T02:06:43.318Z,4.80
2023-01-15T02:06:54.062Z,4.79
2023-01-15T02:07:06.487Z,4.80
2023-01-15T02:07:17.239Z,4.77
2023-01-15T02:07:30.257Z,4.76
2023-01-15T02:07:41.995Z,4.75
2023-01-15T02:07:52.830Z,4.75
2023-01-15T02:08:04.537Z,4.73
2023-01-15T02:08:16.954Z,4.73
2023-01-15T02:08:28.716Z,4.73
2023-01-15T02:08:40.989Z,4.72
2023-01-15T02:08:53.436Z,4.72
2023-01-15T02:09:05.176Z,4.69
2023-01-15T02:09:15.947Z,4.72
2023-01-15T02:09:27.935Z,4.69
2023-01-15T02:09:38.681Z,4.69
2023-01-15T02:09:49.450Z,4.69
2023-01-15T02:10:01.174Z,4.67
2023-01-15T02:10:13.689Z,4.67
2023-01-15T02:10:24.531Z,4.65
2023-01-15T02:10:35.342Z,4.67
2023-01-15T02:10:47.076Z,4.65
2023-01-15T02:10:57.858Z,4.64
2023-01-15T02:11:08.602Z,4.64
2023-01-15T02:11:21.049Z,4.64
2023-01-15T02:11:31.795Z,4.62
2023-01-15T02:11:42.529Z,4.62
2023-01-15T02:11:54.258Z,4.61
2023-01-15T02:12:05.042Z,4.61
2023-01-15T02:12:16.783Z,4.59
2023-01-15T02:12:29.028Z,4.61
2023-01-15T02:12:39.777Z,4.59
2023-01-15T02:12:51.517Z,4.59
2023-01-15T02:13:02.252Z,4.58
2023-01-15T02:13:13.007Z,4.59
2023-01-15T02:13:24.747Z,4.58
2023-01-15T02:13:36.541Z,4.58
2023-01-15T02:13:48.267Z,4.57
2023-01-15T02:14:00.745Z,4.57
2023-01-15T02:14:12.968Z,4.55
2023-01-15T02:14:23.769Z,4.57
2023-01-15T02:14:37.082Z,4.55
2023-01-15T02:14:47.980Z,4.55
2023-01-15T02:14:59.678Z,4.55
2023-01-15T02:15:10.420Z,4.54
2023-01-15T02:15:22.665Z,4.54
2023-01-15T02:15:34.438Z,4.55
2023-01-15T02:15:46.198Z,4.55
2023-01-15T02:15:58.968Z,4.54
2023-01-15T02:16:10.699Z,4.54
2023-01-15T02:16:21.567Z,4.54
2023-01-15T02:16:32.325Z,4.52
2023-01-15T02:16:44.615Z,4.52
2023-01-15T02:16:55.329Z,4.52
2023-01-15T02:17:06.083Z,4.51
2023-01-15T02:17:17.801Z,4.52
2023-01-15T02:17:28.511Z,4.52
2023-01-15T02:17:40.986Z,4.51
2023-01-15T02:17:52.740Z,4.51
2023-01-15T02:18:04.461Z,4.51
2023-01-15T02:18:15.250Z,4.47
2023-01-15T02:18:26.067Z,4.50
2023-01-15T02:18:37.784Z,4.50
2023-01-15T02:18:50.259Z,4.50
2023-01-15T02:19:01.989Z,4.47
2023-01-15T02:19:12.823Z,4.47
2023-01-15T02:19:23.581Z,4.47
2023-01-15T02:19:34.339Z,4.46
2023-01-15T02:19:46.880Z,4.46
2023-01-15T02:19:57.613Z,4.46
2023-01-15T02:20:08.381Z,4.46
2023-01-15T02:20:21.088Z,4.46
2023-01-15T02:20:32.827Z,4.44
2023-01-15T02:20:43.591Z,4.44
2023-01-15T02:20:55.334Z,4.44
2023-01-15T02:21:06.077Z,4.43
2023-01-15T02:21:17.808Z,4.44
2023-01-15T02:21:29.530Z,4.44
2023-01-15T02:21:40.263Z,4.43
2023-01-15T02:21:51.950Z,4.42
2023-01-15T02:22:03.653Z,4.43
2023-01-15T02:22:15.350Z,4.42
2023-01-15T02:22:26.130Z,4.42
2023-01-15T02:22:36.903Z,4.42
2023-01-15T02:22:48.868Z,4.40
2023-01-15T02:22:59.609Z,4.40
2023-01-15T02:23:14.225Z,4.42
2023-01-15T02:23:26.687Z,4.39
2023-01-15T02:23:38.382Z,4.40
2023-01-15T02:23:50.101Z,4.39
2023-01-15T02:24:03.398Z,4.39
2023-01-15T02:24:14.186Z,4.39
2023-01-15T02:24:24.931Z,4.37
2023-01-15T02:24:35.708Z,4.39
2023-01-15T02:24:46.529Z,4.39
2023-01-15T02:24:58.774Z,4.39
2023-01-15T02:25:09.505Z,4.37
2023-01-15T02:25:20.353Z,4.37
2023-01-15T02:25:32.855Z,4.36
2023-01-15T02:25:44.610Z,4.39
2023-01-15T02:25:55.399Z,4.37
2023-01-15T02:26:06.222Z,4.37
2023-01-15T02:26:17.003Z,4.39
2023-01-15T02:26:29.434Z,4.37
2023-01-15T02:26:40.214Z,4.39
2023-01-15T02:26:52.693Z,4.37
2023-01-15T02:27:04.399Z,4.36
2023-01-15T02:27:15.192Z,4.37
2023-01-15T02:27:25.980Z,4.39
2023-01-15T02:27:36.753Z,4.37
2023-01-15T02:27:47.492Z,4.37
2023-01-15T02:27:58.243Z,4.37
2023-01-15T02:28:09.982Z,4.37
2023-01-15T02:28:20.771Z,4.37
2023-01-15T02:28:31.635Z,4.39
2023-01-15T02:28:43.368Z,4.37
2023-01-15T02:28:54.139Z,4.36
2023-01-15T02:29:04.901Z,4.36
2023-01-15T02:29:15.730Z,4.37
2023-01-15T02:29:26.542Z,4.36
2023-01-15T02:29:37.345Z,4.34
2023-01-15T02:29:49.121Z,4.36
2023-01-15T02:29:59.885Z,4.36
2023-01-15T02:30:11.578Z,4.36
2023-01-15T02:30:22.311Z,4.36
2023-01-15T02:30:34.801Z,4.36
2023-01-15T02:30:47.031Z,4.36
2023-01-15T02:30:57.787Z,4.36
2023-01-15T02:31:09.514Z,4.36
2023-01-15T02:31:21.779Z,4.34
2023-01-15T02:31:34.025Z,4.33
2023-01-15T02:31:46.599Z,4.34
2023-01-15T02:31:59.185Z,4.36
2023-01-15T02:32:09.947Z,4.33
2023-01-15T02:32:20.722Z,4.34
2023-01-15T02:32:33.176Z,4.33
2023-01-15T02:32:45.622Z,4.33
2023-01-15T02:32:57.334Z,4.34